Terminal Aerodrome Forecast
Issued by NWS Medford, OR

Home | Current Version | Previous Version | Text Only | Print | Product List | Glossary On
Versions: 1 2 3 4 5 6 7 8 9 10 11 12 13 14 15
566
FTUS46 KMFR 230543
TAFMFR
TAF
KMFR 230543Z 2306/2406 VRB03KT P6SM VCSH SCT035 BKN050 OVC060
     FM231200 VRB03KT 5SM -SHRASN BR SCT015 BKN035 OVC050
     FM231900 VRB04KT P6SM SCT035 BKN050 BKN100
     FM232200 14005KT P6SM SCT050 BKN100=

USA.gov is the U.S. government's official web portal to all federal, state and local government web resources and services.